sensor_id;sensor_type;location;lat;lon;timestamp;temperature;humidity
69281;SHT31;56392;51.082;17.080;2022-11-20T00:00:11;-2.54;78.50
69281;SHT31;56392;51.082;17.080;2022-11-20T00:05:36;-2.58;78.50
69281;SHT31;56392;51.082;17.080;2022-11-20T00:10:39;-2.66;78.30
69281;SHT31;56392;51.082;17.080;2022-11-20T00:15:42;-2.89;77.80
69281;SHT31;56392;51.082;17.080;2022-11-20T00:20:46;-2.84;78.82
69281;SHT31;56392;51.082;17.080;2022-11-20T00:25:49;-3.04;78.01
69281;SHT31;56392;51.082;17.080;2022-11-20T00:31:00;-3.01;78.86
69281;SHT31;56392;51.082;17.080;2022-11-20T00:36:06;-2.85;78.89
69281;SHT31;56392;51.082;17.080;2022-11-20T00:41:11;-2.83;78.57
69281;SHT31;56392;51.082;17.080;2022-11-20T00:46:17;-2.91;78.17
69281;SHT31;56392;51.082;17.080;2022-11-20T00:51:22;-2.84;78.94
69281;SHT31;56392;51.082;17.080;2022-11-20T00:56:25;-2.83;79.12
69281;SHT31;56392;51.082;17.080;2022-11-20T01:01:28;-2.83;78.93
69281;SHT31;56392;51.082;17.080;2022-11-20T01:06:34;-2.84;78.95
69281;SHT31;56392;51.082;17.080;2022-11-20T01:11:39;-2.87;79.07
69281;SHT31;56392;51.082;17.080;2022-11-20T01:16:44;-2.95;79.05
69281;SHT31;56392;51.082;17.080;2022-11-20T01:21:51;-3.04;79.27
69281;SHT31;56392;51.082;17.080;2022-11-20T01:26:54;-3.01;79.33
69281;SHT31;56392;51.082;17.080;2022-11-20T01:31:57;-3.04;79.31
69281;SHT31;56392;51.082;17.080;2022-11-20T01:37:01;-3.28;78.63
69281;SHT31;56392;51.082;17.080;2022-11-20T01:42:03;-3.40;78.63
69281;SHT31;56392;51.082;17.080;2022-11-20T01:47:28;-3.28;78.81
69281;SHT31;56392;51.082;17.080;2022-11-20T01:52:36;-3.13;78.84
69281;SHT31;56392;51.082;17.080;2022-11-20T01:57:40;-3.13;78.98
69281;SHT31;56392;51.082;17.080;2022-11-20T02:02:46;-2.95;79.08
69281;SHT31;56392;51.082;17.080;2022-11-20T02:07:52;-2.89;78.84
69281;SHT31;56392;51.082;17.080;2022-11-20T02:12:57;-2.92;78.81
69281;SHT31;56392;51.082;17.080;2022-11-20T02:18:19;-2.97;78.36
69281;SHT31;56392;51.082;17.080;2022-11-20T02:23:27;-2.99;78.38
69281;SHT31;56392;51.082;17.080;2022-11-20T02:28:34;-2.99;78.13
69281;SHT31;56392;51.082;17.080;2022-11-20T02:33:37;-2.98;78.42
69281;SHT31;56392;51.082;17.080;2022-11-20T02:38:40;-3.02;78.03
69281;SHT31;56392;51.082;17.080;2022-11-20T02:43:45;-3.25;77.63
69281;SHT31;56392;51.082;17.080;2022-11-20T02:48:47;-3.32;77.98
69281;SHT31;56392;51.082;17.080;2022-11-20T02:53:50;-3.36;78.85
69281;SHT31;56392;51.082;17.080;2022-11-20T02:58:54;-3.52;78.88
69281;SHT31;56392;51.082;17.080;2022-11-20T03:03:57;-3.34;79.30
69281;SHT31;56392;51.082;17.080;2022-11-20T03:09:00;-3.23;79.22
69281;SHT31;56392;51.082;17.080;2022-11-20T03:14:04;-3.26;78.96
69281;SHT31;56392;51.082;17.080;2022-11-20T03:19:07;-3.31;78.83
69281;SHT31;56392;51.082;17.080;2022-11-20T03:24:09;-3.39;78.74
69281;SHT31;56392;51.082;17.080;2022-11-20T03:29:14;-3.48;78.80
69281;SHT31;56392;51.082;17.080;2022-11-20T03:34:17;-3.52;78.87
69281;SHT31;56392;51.082;17.080;2022-11-20T03:39:22;-3.55;78.40
69281;SHT31;56392;51.082;17.080;2022-11-20T03:44:26;-3.59;78.52
69281;SHT31;56392;51.082;17.080;2022-11-20T03:49:29;-3.63;78.55
69281;SHT31;56392;51.082;17.080;2022-11-20T03:54:31;-3.67;78.34
69281;SHT31;56392;51.082;17.080;2022-11-20T03:59:35;-3.67;78.41
69281;SHT31;56392;51.082;17.080;2022-11-20T04:04:39;-3.73;78.35
69281;SHT31;56392;51.082;17.080;2022-11-20T04:09:45;-3.84;78.41
69281;SHT31;56392;51.082;17.080;2022-11-20T04:14:49;-3.91;78.50
69281;SHT31;56392;51.082;17.080;2022-11-20T04:19:51;-3.88;79.14
69281;SHT31;56392;51.082;17.080;2022-11-20T04:24:54;-3.93;78.49
69281;SHT31;56392;51.082;17.080;2022-11-20T04:29:58;-3.91;78.76
69281;SHT31;56392;51.082;17.080;2022-11-20T04:35:01;-3.94;78.42
69281;SHT31;56392;51.082;17.080;2022-11-20T04:40:05;-3.94;78.45
69281;SHT31;56392;51.082;17.080;2022-11-20T04:45:09;-3.95;78.30
69281;SHT31;56392;51.082;17.080;2022-11-20T04:50:12;-4.00;78.45
69281;SHT31;56392;51.082;17.080;2022-11-20T04:55:14;-4.02;78.79
69281;SHT31;56392;51.082;17.080;2022-11-20T05:00:19;-4.15;78.55
69281;SHT31;56392;51.082;17.080;2022-11-20T05:05:21;-4.07;79.10
69281;SHT31;56392;51.082;17.080;2022-11-20T05:10:25;-4.05;78.82
69281;SHT31;56392;51.082;17.080;2022-11-20T05:15:29;-4.08;78.91
69281;SHT31;56392;51.082;17.080;2022-11-20T05:20:31;-4.05;78.92
69281;SHT31;56392;51.082;17.080;2022-11-20T05:25:34;-4.07;78.76
69281;SHT31;56392;51.082;17.080;2022-11-20T05:30:38;-4.00;79.42
69281;SHT31;56392;51.082;17.080;2022-11-20T05:35:40;-4.04;79.86
69281;SHT31;56392;51.082;17.080;2022-11-20T05:40:43;-4.10;79.20
69281;SHT31;56392;51.082;17.080;2022-11-20T05:45:52;-3.97;79.91
69281;SHT31;56392;51.082;17.080;2022-11-20T05:50:57;-3.93;79.88
69281;SHT31;56392;51.082;17.080;2022-11-20T05:56:00;-3.94;79.83
69281;SHT31;56392;51.082;17.080;2022-11-20T06:01:07;-3.93;79.96
69281;SHT31;56392;51.082;17.080;2022-11-20T06:06:10;-3.90;78.87
69281;SHT31;56392;51.082;17.080;2022-11-20T06:11:13;-3.95;79.96
69281;SHT31;56392;51.082;17.080;2022-11-20T06:16:20;-3.97;79.27
69281;SHT31;56392;51.082;17.080;2022-11-20T06:21:27;-3.95;79.12
69281;SHT31;56392;51.082;17.080;2022-11-20T06:26:30;-3.97;79.11
69281;SHT31;56392;51.082;17.080;2022-11-20T06:31:34;-3.91;79.25
69281;SHT31;56392;51.082;17.080;2022-11-20T06:36:39;-3.98;79.13
69281;SHT31;56392;51.082;17.080;2022-11-20T06:41:42;-3.98;78.59
69281;SHT31;56392;51.082;17.080;2022-11-20T06:46:46;-4.04;78.63
69281;SHT31;56392;51.082;17.080;2022-11-20T06:51:49;-4.02;78.55
69281;SHT31;56392;51.082;17.080;2022-11-20T06:56:51;-4.02;78.57
69281;SHT31;56392;51.082;17.080;2022-11-20T07:01:56;-4.11;78.40
69281;SHT31;56392;51.082;17.080;2022-11-20T07:06:58;-4.04;78.95
69281;SHT31;56392;51.082;17.080;2022-11-20T07:12:01;-4.08;79.81
69281;SHT31;56392;51.082;17.080;2022-11-20T07:17:05;-4.19;81.11
69281;SHT31;56392;51.082;17.080;2022-11-20T07:22:08;-4.10;81.24
69281;SHT31;56392;51.082;17.080;2022-11-20T07:27:11;-3.74;81.02
69281;SHT31;56392;51.082;17.080;2022-11-20T07:32:16;-3.66;80.64
69281;SHT31;56392;51.082;17.080;2022-11-20T07:37:21;-3.50;80.94
69281;SHT31;56392;51.082;17.080;2022-11-20T07:42:24;-3.38;80.67
69281;SHT31;56392;51.082;17.080;2022-11-20T07:47:28;-3.13;80.11
69281;SHT31;56392;51.082;17.080;2022-11-20T07:52:31;-2.97;80.17
69281;SHT31;56392;51.082;17.080;2022-11-20T07:57:34;-2.83;79.74
69281;SHT31;56392;51.082;17.080;2022-11-20T08:02:38;-2.66;79.75
69281;SHT31;56392;51.082;17.080;2022-11-20T08:07:42;-2.54;79.62
69281;SHT31;56392;51.082;17.080;2022-11-20T08:12:46;-2.37;79.31
69281;SHT31;56392;51.082;17.080;2022-11-20T08:18:10;-2.25;79.03
69281;SHT31;56392;51.082;17.080;2022-11-20T08:23:13;-2.01;79.28
69281;SHT31;56392;51.082;17.080;2022-11-20T08:28:16;-1.91;78.78
69281;SHT31;56392;51.082;17.080;2022-11-20T08:33:21;-1.79;77.92
69281;SHT31;56392;51.082;17.080;2022-11-20T08:38:23;-1.67;78.22
69281;SHT31;56392;51.082;17.080;2022-11-20T08:43:29;-1.54;77.31
69281;SHT31;56392;51.082;17.080;2022-11-20T08:48:33;-1.44;76.54
69281;SHT31;56392;51.082;17.080;2022-11-20T08:53:36;-1.17;77.08
69281;SHT31;56392;51.082;17.080;2022-11-20T08:58:40;-1.02;75.46
69281;SHT31;56392;51.082;17.080;2022-11-20T09:03:44;-0.83;75.40
69281;SHT31;56392;51.082;17.080;2022-11-20T09:08:47;-0.76;74.83
69281;SHT31;56392;51.082;17.080;2022-11-20T09:13:50;-0.73;74.75
69281;SHT31;56392;51.082;17.080;2022-11-20T09:18:54;-0.60;75.81
69281;SHT31;56392;51.082;17.080;2022-11-20T09:23:57;-0.47;75.14
69281;SHT31;56392;51.082;17.080;2022-11-20T09:29:00;-0.30;75.10
69281;SHT31;56392;51.082;17.080;2022-11-20T09:34:04;-0.07;77.83
69281;SHT31;56392;51.082;17.080;2022-11-20T09:39:07;0.03;75.26
69281;SHT31;56392;51.082;17.080;2022-11-20T09:44:20;0.11;75.42
69281;SHT31;56392;51.082;17.080;2022-11-20T09:49:38;0.32;76.60
69281;SHT31;56392;51.082;17.080;2022-11-20T09:54:45;0.92;74.62
69281;SHT31;56392;51.082;17.080;2022-11-20T09:59:50;1.30;71.58
69281;SHT31;56392;51.082;17.080;2022-11-20T10:04:58;1.53;68.86
69281;SHT31;56392;51.082;17.080;2022-11-20T10:10:02;1.64;70.71
69281;SHT31;56392;51.082;17.080;2022-11-20T10:15:12;1.31;71.46
69281;SHT31;56392;51.082;17.080;2022-11-20T10:20:27;0.97;71.32
69281;SHT31;56392;51.082;17.080;2022-11-20T10:25:37;1.00;73.41
69281;SHT31;56392;51.082;17.080;2022-11-20T10:30:43;1.10;74.01
69281;SHT31;56392;51.082;17.080;2022-11-20T10:35:54;1.15;76.41
69281;SHT31;56392;51.082;17.080;2022-11-20T10:41:03;1.10;73.60
69281;SHT31;56392;51.082;17.080;2022-11-20T10:46:25;1.17;73.16
69281;SHT31;56392;51.082;17.080;2022-11-20T10:51:37;1.30;74.30
69281;SHT31;56392;51.082;17.080;2022-11-20T10:56:46;1.40;73.85
69281;SHT31;56392;51.082;17.080;2022-11-20T11:01:49;1.41;71.98
69281;SHT31;56392;51.082;17.080;2022-11-20T11:06:57;1.43;71.48
69281;SHT31;56392;51.082;17.080;2022-11-20T11:12:01;1.53;73.45
69281;SHT31;56392;51.082;17.080;2022-11-20T11:17:19;1.57;71.00
69281;SHT31;56392;51.082;17.080;2022-11-20T11:22:24;1.61;70.79
69281;SHT31;56392;51.082;17.080;2022-11-20T11:27:27;1.71;71.30
69281;SHT31;56392;51.082;17.080;2022-11-20T11:32:30;1.75;70.43
69281;SHT31;56392;51.082;17.080;2022-11-20T11:37:38;1.82;70.35
69281;SHT31;56392;51.082;17.080;2022-11-20T11:42:42;1.81;69.29
69281;SHT31;56392;51.082;17.080;2022-11-20T11:47:46;1.86;70.02
69281;SHT31;56392;51.082;17.080;2022-11-20T11:53:04;1.95;71.13
69281;SHT31;56392;51.082;17.080;2022-11-20T11:58:14;1.98;71.94
69281;SHT31;56392;51.082;17.080;2022-11-20T12:03:22;2.03;70.69
69281;SHT31;56392;51.082;17.080;2022-11-20T12:08:32;2.05;68.83
69281;SHT31;56392;51.082;17.080;2022-11-20T12:13:45;2.11;70.42
69281;SHT31;56392;51.082;17.080;2022-11-20T12:18:52;2.05;69.20
69281;SHT31;56392;51.082;17.080;2022-11-20T12:24:10;2.02;69.65
69281;SHT31;56392;51.082;17.080;2022-11-20T12:29:22;2.12;71.02
69281;SHT31;56392;51.082;17.080;2022-11-20T12:34:43;2.19;71.09
69281;SHT31;56392;51.082;17.080;2022-11-20T12:39:50;2.16;70.57
69281;SHT31;56392;51.082;17.080;2022-11-20T12:45:13;2.22;70.39
69281;SHT31;56392;51.082;17.080;2022-11-20T12:50:27;2.28;70.45
69281;SHT31;56392;51.082;17.080;2022-11-20T12:55:42;2.28;70.14
69281;SHT31;56392;51.082;17.080;2022-11-20T13:00:55;2.33;69.71
69281;SHT31;56392;51.082;17.080;2022-11-20T13:06:05;2.30;68.86
69281;SHT31;56392;51.082;17.080;2022-11-20T13:11:18;2.26;71.80
69281;SHT31;56392;51.082;17.080;2022-11-20T13:16:25;2.28;74.80
69281;SHT31;56392;51.082;17.080;2022-11-20T13:21:38;2.28;69.77
69281;SHT31;56392;51.082;17.080;2022-11-20T13:26:46;2.21;68.81
69281;SHT31;56392;51.082;17.080;2022-11-20T13:31:49;2.19;67.75
69281;SHT31;56392;51.082;17.080;2022-11-20T13:36:53;2.21;70.05
69281;SHT31;56392;51.082;17.080;2022-11-20T13:41:59;2.19;68.49
69281;SHT31;56392;51.082;17.080;2022-11-20T13:47:02;2.19;68.99
69281;SHT31;56392;51.082;17.080;2022-11-20T13:52:26;2.15;69.37
69281;SHT31;56392;51.082;17.080;2022-11-20T13:57:48;2.06;69.85
69281;SHT31;56392;51.082;17.080;2022-11-20T14:03:05;2.08;68.83
69281;SHT31;56392;51.082;17.080;2022-11-20T14:08:15;2.01;69.29
69281;SHT31;56392;51.082;17.080;2022-11-20T14:13:21;1.82;70.05
69281;SHT31;56392;51.082;17.080;2022-11-20T14:18:26;1.77;70.70
69281;SHT31;56392;51.082;17.080;2022-11-20T14:23:29;1.75;70.18
69281;SHT31;56392;51.082;17.080;2022-11-20T14:28:35;1.77;70.70
69281;SHT31;56392;51.082;17.080;2022-11-20T14:33:38;1.65;70.72
69281;SHT31;56392;51.082;17.080;2022-11-20T14:38:41;1.48;71.24
69281;SHT31;56392;51.082;17.080;2022-11-20T14:43:47;1.33;71.92
69281;SHT31;56392;51.082;17.080;2022-11-20T14:48:53;1.16;72.21
69281;SHT31;56392;51.082;17.080;2022-11-20T14:54:10;1.00;72.82
69281;SHT31;56392;51.082;17.080;2022-11-20T14:59:23;0.88;73.73
69281;SHT31;56392;51.082;17.080;2022-11-20T15:04:25;0.72;73.55
69281;SHT31;56392;51.082;17.080;2022-11-20T15:09:29;0.61;73.85
69281;SHT31;56392;51.082;17.080;2022-11-20T15:14:39;0.47;74.24
69281;SHT31;56392;51.082;17.080;2022-11-20T15:19:42;0.40;74.62
69281;SHT31;56392;51.082;17.080;2022-11-20T15:24:45;0.25;74.69
69281;SHT31;56392;51.082;17.080;2022-11-20T15:29:49;0.13;74.95
69281;SHT31;56392;51.082;17.080;2022-11-20T15:34:52;0.09;75.17
69281;SHT31;56392;51.082;17.080;2022-11-20T15:39:55;0.04;75.44
69281;SHT31;56392;51.082;17.080;2022-11-20T15:44:59;-0.06;75.88
69281;SHT31;56392;51.082;17.080;2022-11-20T15:50:02;-0.10;75.95
69281;SHT31;56392;51.082;17.080;2022-11-20T15:55:08;-0.11;76.17
69281;SHT31;56392;51.082;17.080;2022-11-20T16:00:15;-0.18;76.25
69281;SHT31;56392;51.082;17.080;2022-11-20T16:05:18;-0.22;76.28
69281;SHT31;56392;51.082;17.080;2022-11-20T16:10:21;-0.30;76.69
69281;SHT31;56392;51.082;17.080;2022-11-20T16:15:25;-0.40;76.62
69281;SHT31;56392;51.082;17.080;2022-11-20T16:20:47;-0.48;76.85
69281;SHT31;56392;51.082;17.080;2022-11-20T16:25:51;-0.52;77.40
69281;SHT31;56392;51.082;17.080;2022-11-20T16:30:55;-0.55;77.38
69281;SHT31;56392;51.082;17.080;2022-11-20T16:36:06;-0.60;77.79
69281;SHT31;56392;51.082;17.080;2022-11-20T16:41:11;-0.69;77.74
69281;SHT31;56392;51.082;17.080;2022-11-20T16:46:18;-0.71;78.46
69281;SHT31;56392;51.082;17.080;2022-11-20T16:51:22;-0.71;78.26
69281;SHT31;56392;51.082;17.080;2022-11-20T16:56:26;-0.73;78.28
69281;SHT31;56392;51.082;17.080;2022-11-20T17:01:30;-0.76;78.11
69281;SHT31;56392;51.082;17.080;2022-11-20T17:06:36;-0.83;78.18
69281;SHT31;56392;51.082;17.080;2022-11-20T17:11:39;-0.88;78.32
69281;SHT31;56392;51.082;17.080;2022-11-20T17:16:43;-0.88;78.09
69281;SHT31;56392;51.082;17.080;2022-11-20T17:21:46;-0.82;78.05
69281;SHT31;56392;51.082;17.080;2022-11-20T17:26:49;-0.86;78.02
69281;SHT31;56392;51.082;17.080;2022-11-20T17:31:54;-0.91;78.11
69281;SHT31;56392;51.082;17.080;2022-11-20T17:36:56;-0.92;78.30
69281;SHT31;56392;51.082;17.080;2022-11-20T17:41:59;-0.93;78.24
69281;SHT31;56392;51.082;17.080;2022-11-20T17:47:21;-0.92;78.16
69281;SHT31;56392;51.082;17.080;2022-11-20T17:52:23;-0.97;77.99
69281;SHT31;56392;51.082;17.080;2022-11-20T17:57:26;-0.93;77.49
69281;SHT31;56392;51.082;17.080;2022-11-20T18:02:48;-0.95;77.54
69281;SHT31;56392;51.082;17.080;2022-11-20T18:07:51;-0.97;78.18
69281;SHT31;56392;51.082;17.080;2022-11-20T18:12:54;-0.99;78.07
69281;SHT31;56392;51.082;17.080;2022-11-20T18:17:58;-0.99;78.14
69281;SHT31;56392;51.082;17.080;2022-11-20T18:23:01;-0.95;77.97
69281;SHT31;56392;51.082;17.080;2022-11-20T18:28:04;-0.95;78.53
69281;SHT31;56392;51.082;17.080;2022-11-20T18:33:08;-0.93;78.11
69281;SHT31;56392;51.082;17.080;2022-11-20T18:38:11;-0.93;78.41
69281;SHT31;56392;51.082;17.080;2022-11-20T18:43:14;-0.95;78.72
69281;SHT31;56392;51.082;17.080;2022-11-20T18:48:35;-0.91;78.14
69281;SHT31;56392;51.082;17.080;2022-11-20T18:53:39;-0.99;78.32
69281;SHT31;56392;51.082;17.080;2022-11-20T18:58:41;-0.99;78.72
69281;SHT31;56392;51.082;17.080;2022-11-20T19:03:49;-1.03;78.95
69281;SHT31;56392;51.082;17.080;2022-11-20T19:08:52;-1.07;78.64
69281;SHT31;56392;51.082;17.080;2022-11-20T19:13:55;-1.14;78.82
69281;SHT31;56392;51.082;17.080;2022-11-20T19:19:00;-1.21;79.16
69281;SHT31;56392;51.082;17.080;2022-11-20T19:24:03;-1.21;79.55
69281;SHT31;56392;51.082;17.080;2022-11-20T19:29:06;-1.14;79.60
69281;SHT31;56392;51.082;17.080;2022-11-20T19:34:10;-1.10;79.23
69281;SHT31;56392;51.082;17.080;2022-11-20T19:39:14;-1.07;79.48
69281;SHT31;56392;51.082;17.080;2022-11-20T19:44:16;-1.00;79.65
69281;SHT31;56392;51.082;17.080;2022-11-20T19:49:21;-0.99;79.44
69281;SHT31;56392;51.082;17.080;2022-11-20T19:54:43;-0.89;79.46
69281;SHT31;56392;51.082;17.080;2022-11-20T19:59:46;-0.85;79.67
69281;SHT31;56392;51.082;17.080;2022-11-20T20:04:54;-0.76;79.89
69281;SHT31;56392;51.082;17.080;2022-11-20T20:09:57;-0.71;79.59
69281;SHT31;56392;51.082;17.080;2022-11-20T20:14:59;-0.66;79.84
69281;SHT31;56392;51.082;17.080;2022-11-20T20:20:05;-0.62;80.09
69281;SHT31;56392;51.082;17.080;2022-11-20T20:25:08;-0.54;80.05
69281;SHT31;56392;51.082;17.080;2022-11-20T20:30:11;-0.54;79.81
69281;SHT31;56392;51.082;17.080;2022-11-20T20:35:16;-0.57;79.96
69281;SHT31;56392;51.082;17.080;2022-11-20T20:40:18;-0.61;79.49
69281;SHT31;56392;51.082;17.080;2022-11-20T20:45:21;-0.65;78.97
69281;SHT31;56392;51.082;17.080;2022-11-20T20:50:26;-0.75;79.17
69281;SHT31;56392;51.082;17.080;2022-11-20T20:55:29;-0.78;79.20
69281;SHT31;56392;51.082;17.080;2022-11-20T21:00:33;-0.91;79.34
69281;SHT31;56392;51.082;17.080;2022-11-20T21:05:37;-1.00;79.55
69281;SHT31;56392;51.082;17.080;2022-11-20T21:10:40;-1.07;79.73
69281;SHT31;56392;51.082;17.080;2022-11-20T21:15:45;-1.17;79.79
69281;SHT31;56392;51.082;17.080;2022-11-20T21:20:51;-1.21;79.87
69281;SHT31;56392;51.082;17.080;2022-11-20T21:26:11;-1.29;79.90
69281;SHT31;56392;51.082;17.080;2022-11-20T21:31:16;-1.34;80.02
69281;SHT31;56392;51.082;17.080;2022-11-20T21:36:23;-1.43;80.02
69281;SHT31;56392;51.082;17.080;2022-11-20T21:41:28;-1.44;80.05
69281;SHT31;56392;51.082;17.080;2022-11-20T21:46:32;-1.53;79.90
69281;SHT31;56392;51.082;17.080;2022-11-20T21:51:37;-1.57;79.85
69281;SHT31;56392;51.082;17.080;2022-11-20T21:56:40;-1.57;79.86
69281;SHT31;56392;51.082;17.080;2022-11-20T22:01:43;-1.61;80.04
69281;SHT31;56392;51.082;17.080;2022-11-20T22:06:47;-1.63;79.84
69281;SHT31;56392;51.082;17.080;2022-11-20T22:11:50;-1.74;79.88
69281;SHT31;56392;51.082;17.080;2022-11-20T22:16:53;-1.82;79.82
69281;SHT31;56392;51.082;17.080;2022-11-20T22:21:58;-1.89;79.80
69281;SHT31;56392;51.082;17.080;2022-11-20T22:27:01;-1.95;79.95
69281;SHT31;56392;51.082;17.080;2022-11-20T22:32:04;-2.06;79.81
69281;SHT31;56392;51.082;17.080;2022-11-20T22:37:10;-2.12;80.16
69281;SHT31;56392;51.082;17.080;2022-11-20T22:42:13;-2.16;80.26
69281;SHT31;56392;51.082;17.080;2022-11-20T22:47:20;-2.23;80.06
69281;SHT31;56392;51.082;17.080;2022-11-20T22:52:24;-2.23;80.32
69281;SHT31;56392;51.082;17.080;2022-11-20T22:57:27;-2.28;80.14
69281;SHT31;56392;51.082;17.080;2022-11-20T23:02:30;-2.32;79.96
69281;SHT31;56392;51.082;17.080;2022-11-20T23:07:34;-2.33;80.10
69281;SHT31;56392;51.082;17.080;2022-11-20T23:12:37;-2.50;79.95
69281;SHT31;56392;51.082;17.080;2022-11-20T23:17:39;-2.47;80.12
69281;SHT31;56392;51.082;17.080;2022-11-20T23:22:44;-2.44;80.39
69281;SHT31;56392;51.082;17.080;2022-11-20T23:27:47;-2.49;80.14
69281;SHT31;56392;51.082;17.080;2022-11-20T23:32:49;-2.50;80.23
69281;SHT31;56392;51.082;17.080;2022-11-20T23:37:54;-2.53;80.27
69281;SHT31;56392;51.082;17.080;2022-11-20T23:42:57;-2.53;80.27
69281;SHT31;56392;51.082;17.080;2022-11-20T23:48:18;-2.53;80.32
69281;SHT31;56392;51.082;17.080;2022-11-20T23:53:23;-2.57;80.14
69281;SHT31;56392;51.082;17.080;2022-11-20T23:58:31;-2.58;80.19
